Edmonton International Airport
CYEG : now visible

Airfield :











YOU CAN JOIN US ON...

 
LOGIN :

Register | Disclaimer

   EN    FR    IT 

 









Legend :    VFR   Marginal VFR   IFR   Intensive IFR   Very Intensive IFR
Visi :
Ceiling :
>= 8 km
>= 3000ft
5 to 8 km
1000 to 3000 ft
1500m to 5 km
500 to 1000 ft
800 to 1500m
200 to 500 ft
< 800m
< 200 ft
Symbols :   Thunderstorms  Fog  Heavy snow  Heavy precipitations  Wind > 20 kt






- Airport Elevation : 2373 ft
- IATA code : YEG


CYEG - Edmonton International

CURRENT METAR :
  • 240400Z 18003KT 20SM FEW120 SCT160 BKN200 OVC240 M06/M08 A2969 RMK AC1AC3CI3CI1 SLP098

EXPIRED METARs :
  • 240300Z 16007KT 20SM FEW120 OVC240 M02/M06 A2967 RMK AC2CI6 SLP092
  • 240200Z 17008KT 20SM BKN140 BKN240 M01/M06 A2967 RMK AC6CI1 SLP090

TAF TAF CYEG
Valid from the 24 at 03:00 until the 25 at 00:00 UTC


240238Z 2403/2424 17008KT P6SM SCT140 BKN240
BECMG 2403/2405 22005KT
FM240600 22005KT P6SM FEW120 FEW250
BECMG 2410/2412 15006KT
FM241600 15010KT P6SM SCT100
FM242300 VRB03KT P6SM BKN080 RMK NXT FCST BY 240600Z



MET'MAP, your aeronautical weather chart ! - Copyright ORBIFLY December 2007 - Disclaimer

ORBIFLY MET'MAP TEAM :

Programming & Development : Alexandra Zaïnal
Concept & original design : Baudouin d'Aumeries
Assistance for programming : Marc-Olivier Méhu
Technical & hardware support : Manuel Goepfert

Contact : metmap@orbifly.com




SOURCES & CREDITS :

   NOAA       Earth
Advisory